createdAt,value
2018-12-07T00:00:46.786Z,13.80
2018-12-07T00:03:13.282Z,13.60
2018-12-07T00:05:39.754Z,13.80
2018-12-07T00:08:06.133Z,13.60
2018-12-07T00:10:32.542Z,13.60
2018-12-07T00:12:58.917Z,13.70
2018-12-07T00:15:25.321Z,13.70
2018-12-07T00:17:51.724Z,13.20
2018-12-07T00:20:18.204Z,13.20
2018-12-07T00:22:44.596Z,13.40
2018-12-07T00:25:11.011Z,13.20
2018-12-07T00:27:37.412Z,13.30
2018-12-07T00:30:03.977Z,13.20
2018-12-07T00:32:30.390Z,13.30
2018-12-07T00:34:57.636Z,13.70
2018-12-07T00:37:24.027Z,13.70
2018-12-07T00:39:50.395Z,13.70
2018-12-07T00:42:16.804Z,13.70
2018-12-07T00:44:43.202Z,13.30
2018-12-07T00:47:09.608Z,13.20
2018-12-07T00:49:35.969Z,13.80
2018-12-07T00:52:03.133Z,13.60
2018-12-07T00:54:29.528Z,13.70
2018-12-07T00:56:55.917Z,13.60
2018-12-07T00:59:22.291Z,13.70
2018-12-07T01:01:48.799Z,13.60
2018-12-07T01:04:15.343Z,13.70
2018-12-07T01:06:41.734Z,13.70
2018-12-07T01:09:08.114Z,13.50
2018-12-07T01:11:34.640Z,13.60
2018-12-07T01:14:01.001Z,13.70
2018-12-07T01:16:27.500Z,13.50
2018-12-07T01:18:53.875Z,13.70
2018-12-07T01:21:20.265Z,13.60
2018-12-07T01:23:46.644Z,13.70
2018-12-07T01:26:13.038Z,13.30
2018-12-07T01:28:39.455Z,13.80
2018-12-07T01:31:05.816Z,13.20
2018-12-07T01:33:32.209Z,13.30
2018-12-07T01:35:58.559Z,13.30
2018-12-07T01:38:24.937Z,13.40
2018-12-07T01:40:58.390Z,13.10
2018-12-07T01:43:24.774Z,13.10
2018-12-07T01:45:51.148Z,13.10
2018-12-07T01:48:17.547Z,12.70
2018-12-07T01:50:43.932Z,13.00
2018-12-07T01:53:10.352Z,12.70
2018-12-07T01:55:36.762Z,12.70
2018-12-07T01:58:03.164Z,12.70
2018-12-07T02:00:29.558Z,12.70
2018-12-07T02:02:56.002Z,12.60
2018-12-07T02:05:22.414Z,12.60
2018-12-07T02:07:48.907Z,12.70
2018-12-07T02:10:15.353Z,12.70
2018-12-07T02:12:41.762Z,12.60
2018-12-07T02:15:08.316Z,12.70
2018-12-07T02:17:34.739Z,12.70
2018-12-07T02:20:01.401Z,12.40
2018-12-07T02:22:27.801Z,12.70
2018-12-07T02:24:54.230Z,12.40
2018-12-07T02:27:20.647Z,12.30
2018-12-07T02:29:47.076Z,12.20
2018-12-07T02:32:13.503Z,12.40
2018-12-07T02:34:39.972Z,12.40
2018-12-07T02:37:06.348Z,12.40
2018-12-07T02:39:32.771Z,12.30
2018-12-07T02:41:59.173Z,12.40
2018-12-07T02:44:25.552Z,12.20
2018-12-07T02:46:51.955Z,12.10
2018-12-07T02:49:18.452Z,12.20
2018-12-07T02:51:44.988Z,12.20
2018-12-07T02:54:11.387Z,11.80
2018-12-07T02:56:37.846Z,12.30
2018-12-07T02:59:04.247Z,12.30
2018-12-07T03:01:30.657Z,12.30
2018-12-07T03:03:57.079Z,12.40
2018-12-07T03:06:23.580Z,12.40
2018-12-07T03:08:49.975Z,12.00
2018-12-07T03:11:16.406Z,12.20
2018-12-07T03:13:42.824Z,12.20
2018-12-07T03:16:09.300Z,12.40
2018-12-07T03:18:35.708Z,12.40
2018-12-07T03:21:02.143Z,12.40
2018-12-07T03:23:28.572Z,12.20
2018-12-07T03:25:54.980Z,12.30
2018-12-07T03:28:21.418Z,12.40
2018-12-07T03:30:48.052Z,12.20
2018-12-07T03:33:14.513Z,12.20
2018-12-07T03:35:40.926Z,12.10
2018-12-07T03:38:07.416Z,12.20
2018-12-07T03:40:33.934Z,12.20
2018-12-07T03:43:00.365Z,12.20
2018-12-07T03:45:26.821Z,12.30
2018-12-07T03:47:53.251Z,12.40
2018-12-07T03:50:19.741Z,12.20
2018-12-07T03:52:46.157Z,12.60
2018-12-07T03:55:12.591Z,12.70
2018-12-07T03:57:39.963Z,12.80
2018-12-07T04:00:08.373Z,12.60
2018-12-07T04:02:35.039Z,12.80
2018-12-07T04:05:01.567Z,12.60
2018-12-07T04:07:27.953Z,12.70
2018-12-07T04:09:54.384Z,12.90
2018-12-07T04:12:20.833Z,12.70
2018-12-07T04:14:47.359Z,12.90
2018-12-07T04:17:13.776Z,12.60
2018-12-07T04:19:40.295Z,12.60
2018-12-07T04:22:06.707Z,12.80
2018-12-07T04:24:33.113Z,12.60
2018-12-07T04:26:59.553Z,12.60
2018-12-07T04:29:25.960Z,12.30
2018-12-07T04:31:52.340Z,12.20
2018-12-07T04:34:18.873Z,11.40
2018-12-07T04:36:45.471Z,11.80
2018-12-07T04:39:11.884Z,11.70
2018-12-07T04:41:38.389Z,12.00
2018-12-07T04:44:04.825Z,11.80
2018-12-07T04:46:31.480Z,11.80
2018-12-07T04:48:57.951Z,12.00
2018-12-07T04:51:24.366Z,11.80
2018-12-07T04:53:50.749Z,11.80
2018-12-07T04:56:17.287Z,11.80
2018-12-07T04:58:43.682Z,11.40
2018-12-07T05:01:10.233Z,11.90
2018-12-07T05:03:36.737Z,11.50
2018-12-07T05:06:03.283Z,11.90
2018-12-07T05:08:29.792Z,11.60
2018-12-07T05:10:56.186Z,11.50
2018-12-07T05:13:22.563Z,11.50
2018-12-07T05:15:49.096Z,11.50
2018-12-07T05:18:15.604Z,11.60
2018-12-07T05:20:42.000Z,11.40
2018-12-07T05:23:08.393Z,11.30
2018-12-07T05:25:34.899Z,11.40
2018-12-07T05:28:01.298Z,11.40
2018-12-07T05:30:28.184Z,11.40
2018-12-07T05:32:54.556Z,11.30
2018-12-07T05:35:20.964Z,11.40
2018-12-07T05:37:47.348Z,11.50
2018-12-07T05:40:13.859Z,11.60
2018-12-07T05:42:40.267Z,11.40
2018-12-07T05:45:06.799Z,11.50
2018-12-07T05:47:33.270Z,11.40
2018-12-07T05:49:59.678Z,11.50
2018-12-07T05:52:26.076Z,11.40
2018-12-07T05:54:52.540Z,11.50
2018-12-07T05:57:19.144Z,11.40
2018-12-07T05:59:45.516Z,11.50
2018-12-07T06:02:11.941Z,11.60
2018-12-07T06:04:38.312Z,11.50
2018-12-07T06:07:04.836Z,11.40
2018-12-07T06:09:31.294Z,11.40
2018-12-07T06:11:57.700Z,11.40
2018-12-07T06:14:24.085Z,11.40
2018-12-07T06:16:50.612Z,11.40
2018-12-07T06:19:17.139Z,11.40
2018-12-07T06:21:43.550Z,11.50
2018-12-07T06:24:10.052Z,11.40
2018-12-07T06:26:36.559Z,11.90
2018-12-07T06:29:03.168Z,11.40
2018-12-07T06:31:29.591Z,11.60
2018-12-07T06:33:56.094Z,11.50
2018-12-07T06:36:22.704Z,11.60
2018-12-07T06:38:49.195Z,11.80
2018-12-07T06:41:15.597Z,11.80
2018-12-07T06:43:41.968Z,11.40
2018-12-07T06:46:08.396Z,11.60
2018-12-07T06:48:34.805Z,11.40
2018-12-07T06:51:01.203Z,11.40
2018-12-07T06:53:27.613Z,11.60
2018-12-07T06:55:54.038Z,11.50
2018-12-07T06:58:20.444Z,11.30
2018-12-07T07:00:46.865Z,11.50
2018-12-07T07:03:13.252Z,11.30
2018-12-07T07:05:39.740Z,11.40
2018-12-07T07:08:06.258Z,11.40
2018-12-07T07:10:32.658Z,11.50
2018-12-07T07:12:59.091Z,11.40
2018-12-07T07:15:25.501Z,11.60
2018-12-07T07:17:51.916Z,11.40
2018-12-07T07:20:18.319Z,11.80
2018-12-07T07:22:44.725Z,11.30
2018-12-07T07:25:11.228Z,11.70
2018-12-07T07:27:37.658Z,11.90
2018-12-07T07:30:05.201Z,11.80
2018-12-07T07:32:31.717Z,11.60
2018-12-07T07:34:58.106Z,11.70
2018-12-07T07:37:24.491Z,12.00
2018-12-07T07:39:50.970Z,11.90
2018-12-07T07:42:17.364Z,12.00
2018-12-07T07:44:43.773Z,11.80
2018-12-07T07:47:10.350Z,12.30
2018-12-07T07:49:36.752Z,12.20
2018-12-07T07:52:03.256Z,12.30
2018-12-07T07:54:29.689Z,12.30
2018-12-07T07:56:56.097Z,12.20
2018-12-07T07:59:22.611Z,12.20
2018-12-07T08:01:49.012Z,12.30
2018-12-07T08:04:15.407Z,12.40
2018-12-07T08:06:41.812Z,12.30
2018-12-07T08:09:08.228Z,12.80
2018-12-07T08:11:34.655Z,12.60
2018-12-07T08:14:01.103Z,12.70
2018-12-07T08:16:27.573Z,12.60
2018-12-07T08:18:53.980Z,12.80
2018-12-07T08:21:20.394Z,12.60
2018-12-07T08:23:46.768Z,12.60
2018-12-07T08:26:13.179Z,12.60
2018-12-07T08:28:39.588Z,12.80
2018-12-07T08:31:06.004Z,12.50
2018-12-07T08:33:32.395Z,12.70
2018-12-07T08:35:58.887Z,12.60
2018-12-07T08:38:25.297Z,12.70
2018-12-07T08:40:51.712Z,12.80
2018-12-07T08:43:18.115Z,12.70
2018-12-07T08:45:44.665Z,12.60
2018-12-07T08:48:11.064Z,12.80
2018-12-07T08:50:37.515Z,13.00
2018-12-07T08:53:03.923Z,13.00
2018-12-07T08:55:30.415Z,12.90
2018-12-07T08:57:56.827Z,13.30
2018-12-07T09:00:23.218Z,12.70
2018-12-07T09:02:49.627Z,12.80
2018-12-07T09:05:16.020Z,13.10
2018-12-07T09:07:42.435Z,13.20
2018-12-07T09:10:08.967Z,13.30
2018-12-07T09:12:35.417Z,12.70
2018-12-07T09:15:02.056Z,13.20
2018-12-07T09:17:28.469Z,13.10
2018-12-07T09:19:54.859Z,13.10
2018-12-07T09:22:21.272Z,13.30
2018-12-07T09:24:47.659Z,13.00
2018-12-07T09:27:14.072Z,13.10
2018-12-07T09:29:40.584Z,13.20
2018-12-07T09:32:07.010Z,13.10
2018-12-07T09:34:33.474Z,13.20
2018-12-07T09:36:59.871Z,13.00
2018-12-07T09:39:26.271Z,13.00
2018-12-07T09:41:52.660Z,13.00
2018-12-07T09:44:19.181Z,12.80
2018-12-07T09:46:45.603Z,12.80
2018-12-07T09:49:12.064Z,12.70
2018-12-07T09:51:38.435Z,12.80
2018-12-07T09:54:04.827Z,13.10
2018-12-07T09:56:31.332Z,13.20
2018-12-07T09:58:57.752Z,13.10
2018-12-07T10:01:24.132Z,13.20
2018-12-07T10:03:50.533Z,13.20
2018-12-07T10:06:16.935Z,12.80
2018-12-07T10:08:43.381Z,12.60
2018-12-07T10:11:09.770Z,12.90
2018-12-07T10:13:36.187Z,12.70
2018-12-07T10:16:02.695Z,12.80
2018-12-07T10:18:29.116Z,12.50
2018-12-07T10:20:55.705Z,12.70
2018-12-07T10:23:22.087Z,12.80
2018-12-07T10:25:48.467Z,12.70
2018-12-07T10:28:14.861Z,12.90
2018-12-07T10:30:48.045Z,12.90
2018-12-07T10:33:14.520Z,12.90
2018-12-07T10:35:40.912Z,12.80
2018-12-07T10:38:07.286Z,12.70
2018-12-07T10:40:33.765Z,12.70
2018-12-07T10:43:00.237Z,12.70
2018-12-07T10:45:26.689Z,12.70
2018-12-07T10:47:53.093Z,13.20
2018-12-07T10:50:19.464Z,12.90
2018-12-07T10:52:45.870Z,13.30
2018-12-07T10:55:12.355Z,13.10
2018-12-07T10:57:39.072Z,13.30
2018-12-07T11:00:08.535Z,13.10
2018-12-07T11:02:41.075Z,13.20
2018-12-07T11:05:13.636Z,13.30
2018-12-07T11:07:46.279Z,13.10
2018-12-07T11:10:18.860Z,13.30
2018-12-07T11:12:51.296Z,13.20
2018-12-07T11:15:23.946Z,13.20
2018-12-07T11:17:56.290Z,13.20
2018-12-07T11:20:28.683Z,13.20
2018-12-07T11:23:01.330Z,13.40
2018-12-07T11:25:33.623Z,13.40
2018-12-07T11:28:06.288Z,13.10
2018-12-07T11:30:34.719Z,13.40
2018-12-07T11:33:07.199Z,13.60
2018-12-07T11:35:34.633Z,13.20
2018-12-07T11:38:01.111Z,13.30
2018-12-07T11:40:28.693Z,13.10
2018-12-07T11:42:55.463Z,13.20
2018-12-07T11:45:21.971Z,13.50
2018-12-07T11:47:48.371Z,13.60
2018-12-07T11:50:14.796Z,13.60
2018-12-07T11:52:41.187Z,13.40
2018-12-07T11:55:07.730Z,13.70
2018-12-07T11:57:34.096Z,13.70
2018-12-07T12:00:00.498Z,13.50
2018-12-07T12:02:27.082Z,13.20
2018-12-07T12:04:53.514Z,13.20
2018-12-07T12:07:19.902Z,13.70
2018-12-07T12:09:46.293Z,13.80
2018-12-07T12:12:12.674Z,13.70
2018-12-07T12:14:39.140Z,13.60
2018-12-07T12:17:05.559Z,13.50
2018-12-07T12:19:31.956Z,13.30
2018-12-07T12:21:58.360Z,13.30
2018-12-07T12:24:24.757Z,13.50
2018-12-07T12:26:51.216Z,13.60
2018-12-07T12:29:17.636Z,13.60
2018-12-07T12:31:44.256Z,13.70
2018-12-07T12:34:17.520Z,13.60
2018-12-07T12:36:44.065Z,13.60
2018-12-07T12:39:10.547Z,13.80
2018-12-07T12:41:36.942Z,13.70
2018-12-07T12:44:03.518Z,13.60
2018-12-07T12:46:30.095Z,13.60
2018-12-07T12:48:56.505Z,13.70
2018-12-07T12:51:22.980Z,13.80
2018-12-07T12:53:49.388Z,13.90
2018-12-07T12:56:15.810Z,13.60
2018-12-07T13:01:15.326Z,13.80
2018-12-07T13:03:41.701Z,13.70
2018-12-07T13:06:08.140Z,13.90
2018-12-07T13:08:34.559Z,14.20
2018-12-07T13:11:00.964Z,14.00
2018-12-07T13:13:27.371Z,13.80
2018-12-07T13:15:53.759Z,13.80
2018-12-07T13:18:20.247Z,13.70
2018-12-07T13:20:46.664Z,14.20
2018-12-07T13:23:13.027Z,14.00
2018-12-07T13:25:39.606Z,14.20
2018-12-07T13:28:06.026Z,14.20
2018-12-07T13:30:32.429Z,13.80
2018-12-07T13:32:58.916Z,14.10
2018-12-07T13:35:25.335Z,13.70
2018-12-07T13:37:51.752Z,13.70
2018-12-07T13:40:18.298Z,13.70
2018-12-07T13:42:44.914Z,13.90
2018-12-07T13:45:11.528Z,13.80
2018-12-07T13:47:38.199Z,13.60
2018-12-07T13:53:12.049Z,13.70
2018-12-07T13:55:38.696Z,13.80
2018-12-07T13:58:05.487Z,13.50
2018-12-07T14:00:36.143Z,13.70
2018-12-07T14:03:03.536Z,12.90
2018-12-07T14:05:32.382Z,13.70
2018-12-07T14:07:58.985Z,13.50
2018-12-07T14:10:25.649Z,13.60
2018-12-07T14:12:52.197Z,13.50
2018-12-07T14:15:18.803Z,13.50
2018-12-07T14:17:46.389Z,13.50
2018-12-07T14:20:15.897Z,13.50
2018-12-07T14:22:49.546Z,13.60
2018-12-07T14:25:16.353Z,13.00
2018-12-07T14:27:43.070Z,13.60
2018-12-07T14:30:09.912Z,13.00
2018-12-07T14:32:36.551Z,13.20
2018-12-07T14:35:03.990Z,13.50
2018-12-07T14:37:30.728Z,13.60
2018-12-07T14:39:57.445Z,13.50
2018-12-07T14:42:23.958Z,13.10
2018-12-07T14:44:50.505Z,12.80
2018-12-07T14:47:17.124Z,13.30
2018-12-07T14:49:43.784Z,13.20
2018-12-07T14:52:10.419Z,13.00
2018-12-07T14:54:36.917Z,13.20
2018-12-07T14:57:03.510Z,13.20
2018-12-07T14:59:29.965Z,13.20
2018-12-07T15:01:56.544Z,13.10
2018-12-07T15:04:23.019Z,13.10
2018-12-07T15:06:49.718Z,13.20
2018-12-07T15:09:16.241Z,13.40
2018-12-07T15:11:42.876Z,13.10
2018-12-07T15:14:09.442Z,13.00
2018-12-07T15:16:35.958Z,12.90
2018-12-07T15:19:02.719Z,13.10
2018-12-07T15:21:29.516Z,13.10
2018-12-07T15:23:56.088Z,12.60
2018-12-07T15:26:22.755Z,12.80
2018-12-07T15:28:49.299Z,12.40
2018-12-07T15:31:15.778Z,12.30
2018-12-07T15:33:42.248Z,11.70
2018-12-07T15:36:08.705Z,11.90
2018-12-07T15:38:35.154Z,11.80
2018-12-07T15:41:01.780Z,11.90
2018-12-07T15:43:28.412Z,11.80
2018-12-07T15:45:54.905Z,11.80
2018-12-07T15:48:21.512Z,11.90
2018-12-07T15:50:48.116Z,11.00
2018-12-07T15:53:14.747Z,11.40
2018-12-07T15:55:41.378Z,11.60
2018-12-07T15:58:08.000Z,11.40
2018-12-07T16:00:34.488Z,11.30
2018-12-07T16:03:01.041Z,11.60
2018-12-07T16:05:27.480Z,11.50
2018-12-07T16:07:53.978Z,10.90
2018-12-07T16:10:20.516Z,11.50
2018-12-07T16:12:47.135Z,11.00
2018-12-07T16:15:13.814Z,11.40
2018-12-07T16:17:40.476Z,11.20
2018-12-07T16:20:09.851Z,11.10
2018-12-07T16:22:36.542Z,11.30
2018-12-07T16:25:03.885Z,11.00
2018-12-07T16:27:30.395Z,11.00
2018-12-07T16:29:56.947Z,10.90
2018-12-07T16:32:23.433Z,10.60
2018-12-07T16:34:49.967Z,11.00
2018-12-07T16:37:16.547Z,11.10
2018-12-07T16:39:42.985Z,10.90
2018-12-07T16:42:09.488Z,10.90
2018-12-07T16:44:36.007Z,11.00
2018-12-07T16:47:02.563Z,11.00
2018-12-07T16:49:29.182Z,11.00
2018-12-07T16:51:55.604Z,11.00
2018-12-07T16:54:22.303Z,11.00
2018-12-07T16:56:48.811Z,11.00
2018-12-07T16:59:15.799Z,10.80
2018-12-07T17:01:42.294Z,11.10
2018-12-07T17:04:08.775Z,11.10
2018-12-07T17:06:35.318Z,10.90
2018-12-07T17:09:01.953Z,11.00
2018-12-07T17:11:28.701Z,11.00
2018-12-07T17:13:56.093Z,11.10
2018-12-07T17:16:22.644Z,10.80
2018-12-07T17:18:49.304Z,11.00
2018-12-07T17:21:15.906Z,10.90
2018-12-07T17:23:42.507Z,11.00
2018-12-07T17:26:09.012Z,10.50
2018-12-07T17:28:35.509Z,10.90
2018-12-07T17:31:02.006Z,11.00
2018-12-07T17:33:28.963Z,11.10
2018-12-07T17:35:55.708Z,11.00
2018-12-07T17:38:22.394Z,11.00
2018-12-07T17:40:48.922Z,10.80
2018-12-07T17:43:15.511Z,10.90
2018-12-07T17:45:42.117Z,10.80
2018-12-07T17:48:08.864Z,10.80
2018-12-07T17:50:35.587Z,10.60
2018-12-07T17:53:02.143Z,10.30
2018-12-07T17:55:28.604Z,10.20
2018-12-07T17:57:55.126Z,10.30
2018-12-07T18:00:21.760Z,10.10
2018-12-07T18:02:48.278Z,9.50
2018-12-07T18:05:14.779Z,10.00
2018-12-07T18:07:41.301Z,9.90
2018-12-07T18:10:08.195Z,9.40
2018-12-07T18:12:34.900Z,9.40
2018-12-07T18:15:01.798Z,9.40
2018-12-07T18:17:28.328Z,9.60
2018-12-07T18:19:54.723Z,9.40
2018-12-07T18:22:21.165Z,9.60
2018-12-07T18:24:47.852Z,9.50
2018-12-07T18:27:14.335Z,9.30
2018-12-07T18:29:42.146Z,9.20
2018-12-07T18:32:08.675Z,9.50
2018-12-07T18:34:35.474Z,9.60
2018-12-07T18:37:02.120Z,9.40
2018-12-07T18:39:28.683Z,8.90
2018-12-07T18:41:55.311Z,8.50
2018-12-07T18:44:21.991Z,9.20
2018-12-07T18:46:48.644Z,9.20
2018-12-07T18:49:15.751Z,9.30
2018-12-07T18:54:40.489Z,9.10
2018-12-07T18:57:07.079Z,8.40
2018-12-07T18:59:33.913Z,8.60
2018-12-07T19:02:00.623Z,8.50
2018-12-07T19:04:27.730Z,8.20
2018-12-07T19:06:54.692Z,8.10
2018-12-07T19:09:21.453Z,7.90
2018-12-07T19:11:48.056Z,7.90
2018-12-07T19:14:14.533Z,8.20
2018-12-07T19:16:41.019Z,8.20
2018-12-07T19:19:07.507Z,8.20
2018-12-07T19:21:33.925Z,8.00
2018-12-07T19:24:00.920Z,7.80
2018-12-07T19:26:27.892Z,7.80
2018-12-07T19:28:54.399Z,7.70
2018-12-07T19:31:21.311Z,7.60
2018-12-07T19:33:47.820Z,7.90
2018-12-07T19:36:14.562Z,7.90
2018-12-07T19:38:41.285Z,7.70
2018-12-07T19:41:08.307Z,7.90
2018-12-07T19:43:34.953Z,7.80
2018-12-07T19:46:08.465Z,7.70
2018-12-07T19:48:34.911Z,7.80
2018-12-07T19:51:03.480Z,7.80
2018-12-07T19:53:29.980Z,7.80
2018-12-07T19:55:56.712Z,7.80
2018-12-07T19:58:23.321Z,7.90
2018-12-07T20:00:49.855Z,7.60
2018-12-07T20:03:16.286Z,7.70
2018-12-07T20:05:42.905Z,7.80
2018-12-07T20:08:09.408Z,8.10
2018-12-07T20:10:36.116Z,8.00
2018-12-07T20:13:02.845Z,7.90
2018-12-07T20:15:29.438Z,8.00
2018-12-07T20:17:55.831Z,7.60
2018-12-07T20:20:22.349Z,7.60
2018-12-07T20:22:49.169Z,7.90
2018-12-07T20:25:15.823Z,7.90
2018-12-07T20:27:42.415Z,7.80
2018-12-07T20:30:09.295Z,8.20
2018-12-07T20:32:36.124Z,7.70
2018-12-07T20:35:03.465Z,8.10
2018-12-07T20:37:30.051Z,8.10
2018-12-07T20:39:56.410Z,8.10
2018-12-07T20:42:23.186Z,8.10
2018-12-07T20:44:49.803Z,7.80
2018-12-07T20:47:24.591Z,7.80
2018-12-07T20:49:44.661Z,7.50
2018-12-07T20:52:18.054Z,8.20
2018-12-07T20:54:44.685Z,8.10
2018-12-07T20:57:11.202Z,8.00
2018-12-07T20:59:37.667Z,8.00
2018-12-07T21:02:04.178Z,7.90
2018-12-07T21:04:33.399Z,8.00
2018-12-07T21:10:48.650Z,8.00
2018-12-07T21:16:52.273Z,8.00
2018-12-07T21:19:18.900Z,8.10
2018-12-07T21:21:45.413Z,8.20
2018-12-07T21:24:11.988Z,7.80
2018-12-07T21:26:38.634Z,7.90
2018-12-07T21:29:05.485Z,8.00
2018-12-07T21:31:32.062Z,8.20
2018-12-07T21:34:03.547Z,7.90
2018-12-07T21:36:38.533Z,8.00
2018-12-07T21:39:11.364Z,8.10
2018-12-07T21:41:37.738Z,8.20
2018-12-07T21:44:04.468Z,8.50
2018-12-07T21:46:31.165Z,8.40
2018-12-07T21:48:57.701Z,8.50
2018-12-07T21:51:28.428Z,8.20
2018-12-07T21:53:54.908Z,8.40
2018-12-07T21:56:21.372Z,8.30
2018-12-07T21:58:47.908Z,8.30
2018-12-07T22:01:14.606Z,8.30
2018-12-07T22:03:41.225Z,8.40
2018-12-07T22:06:07.711Z,8.20
2018-12-07T22:08:34.342Z,8.00
2018-12-07T22:11:00.943Z,7.80
2018-12-07T22:13:27.393Z,7.30
2018-12-07T22:15:53.984Z,7.00
2018-12-07T22:18:20.543Z,7.50
2018-12-07T22:20:46.994Z,7.00
2018-12-07T22:23:13.438Z,7.30
2018-12-07T22:25:40.073Z,7.10
2018-12-07T22:28:06.610Z,7.20
2018-12-07T22:30:33.208Z,7.60
2018-12-07T22:32:59.698Z,7.30
2018-12-07T22:35:26.257Z,7.50
2018-12-07T22:37:52.875Z,7.40
2018-12-07T22:40:19.728Z,7.50
2018-12-07T22:42:46.565Z,7.80
2018-12-07T22:45:13.415Z,7.60
2018-12-07T22:47:40.295Z,7.90
2018-12-07T22:50:06.984Z,8.10
2018-12-07T22:52:33.460Z,8.00
2018-12-07T22:54:59.954Z,7.90
2018-12-07T22:57:26.453Z,7.90
2018-12-07T22:59:52.857Z,8.00
2018-12-07T23:02:19.262Z,8.00
2018-12-07T23:04:45.755Z,8.10
2018-12-07T23:07:12.154Z,8.00
2018-12-07T23:09:38.569Z,8.00
2018-12-07T23:12:12.016Z,8.00
2018-12-07T23:14:38.422Z,7.90
2018-12-07T23:17:04.962Z,8.00
2018-12-07T23:19:31.442Z,8.20
2018-12-07T23:21:57.834Z,7.90
2018-12-07T23:24:24.215Z,7.90
2018-12-07T23:26:50.599Z,8.00
2018-12-07T23:29:20.103Z,7.80
2018-12-07T23:31:46.511Z,7.90
2018-12-07T23:34:12.868Z,8.00
2018-12-07T23:36:39.452Z,8.10
2018-12-07T23:39:05.958Z,7.60
2018-12-07T23:41:32.362Z,7.90
2018-12-07T23:43:58.742Z,7.90
2018-12-07T23:46:25.136Z,7.90
2018-12-07T23:48:51.583Z,8.10
2018-12-07T23:51:18.093Z,7.40
2018-12-07T23:53:44.488Z,8.10
2018-12-07T23:56:17.772Z,8.10
2018-12-07T23:58:44.128Z,8.20
